Time;durP1;ratioP1;P1;durP2;ratioP2;P2;SDS_P1;SDS_P2;PMS_P1;PMS_P2;Temp;Humidity;BMP_temperature;BMP_pressure;BME280_temperature;BME280_humidity;BME280_pressure;Samples;Min_cycle;Max_cycle;Signal;HPM_P1;HPM_P2
2022/07/17 00:01:58;;;;;;;;;3.40;3.40;;;;;21.81;87.96;102042.28;4928292;28;44852;-89
2022/07/17 00:04:23;;;;;;;;;2.00;2.00;;;;;21.79;85.20;102036.13;4925718;28;45409;-89
2022/07/17 00:06:49;;;;;;;;;2.25;2.25;;;;;21.72;88.79;102047.69;4924919;28;44817;-89
2022/07/17 00:09:19;;;;;;;;;3.75;3.00;;;;;21.69;88.37;102042.56;4937345;28;44789;-92
2022/07/17 00:11:50;;;;;;;;;3.80;3.80;;;;;21.63;89.55;102035.03;5125888;23;45253;-93
2022/07/17 00:14:15;;;;;;;;;2.20;2.20;;;;;21.60;87.21;102041.56;4897221;29;45088;-89
2022/07/17 00:16:40;;;;;;;;;4.00;4.00;;;;;21.55;88.86;102047.38;4896911;29;44692;-89
2022/07/17 00:19:06;;;;;;;;;4.50;4.00;;;;;21.52;90.46;102042.28;4908746;29;44984;-89
2022/07/17 00:21:32;;;;;;;;;3.00;3.00;;;;;21.49;89.93;102041.72;4892432;29;44866;-90
2022/07/17 00:23:58;;;;;;;;;3.00;3.00;;;;;21.41;90.81;102028.88;4908210;29;45425;-89
2022/07/17 00:26:33;;;;;;;;;3.75;3.00;;;;;21.37;89.68;102040.13;4919178;29;44841;-95
2022/07/17 00:29:03;;;;;;;;;6.40;3.60;;;;;21.33;91.98;102038.72;4908074;29;45429;-88
2022/07/17 00:31:28;;;;;;;;;3.00;3.00;;;;;21.29;89.04;102032.69;4908607;29;44870;-88
2022/07/17 00:34:04;;;;;;;;;3.00;2.00;;;;;21.23;92.47;102041.38;4896024;29;46343;-93
2022/07/17 00:37:23;;;;;;;;;3.00;3.00;;;;;21.18;92.23;102046.34;4897951;29;44641;-93
2022/07/17 00:39:54;;;;;;;;;4.00;4.00;;;;;21.13;91.32;102038.66;4906210;29;44841;-93
2022/07/17 00:42:22;;;;;;;;;2.75;2.75;;;;;21.08;92.99;102040.94;4903206;29;44853;-89
2022/07/17 00:44:47;;;;;;;;;4.25;4.00;;;;;21.05;94.07;102030.38;4917164;29;45507;-89
2022/07/17 00:47:15;;;;;;;;;4.50;4.00;;;;;21.02;92.60;102019.84;4924942;28;44624;-88
2022/07/17 00:49:41;;;;;;;;;3.20;3.20;;;;;20.93;94.31;102023.38;4922367;29;44811;-89
2022/07/17 00:52:11;;;;;;;;;7.25;3.25;;;;;20.88;94.70;102031.91;4898311;29;44900;-89
2022/07/17 00:54:38;;;;;;;;;2.60;2.60;;;;;20.85;94.44;102037.59;4913388;29;45114;-89
2022/07/17 00:57:08;;;;;;;;;6.00;3.00;;;;;20.82;95.02;102040.56;4907235;29;44857;-89
2022/07/17 00:59:35;;;;;;;;;6.00;3.00;;;;;20.79;92.25;102047.13;4913160;29;44746;-95
2022/07/17 01:02:06;;;;;;;;;4.00;2.80;;;;;20.75;93.58;102045.66;4900888;29;44878;-94
2022/07/17 01:04:38;;;;;;;;;1.00;1.00;;;;;20.69;95.98;102042.63;4890333;29;45146;-95
2022/07/17 01:07:23;;;;;;;;;3.00;3.00;;;;;20.65;95.59;102044.78;4928199;28;44766;-95
2022/07/17 01:10:05;;;;;;;;;2.60;2.60;;;;;20.59;94.92;102048.00;4902397;29;44605;-95
2022/07/17 01:12:33;;;;;;;;;5.20;3.40;;;;;20.55;98.22;102043.91;4924269;28;44869;-94
2022/07/17 01:15:01;;;;;;;;;3.00;2.80;;;;;20.52;96.36;102046.84;4894552;29;45187;-94
2022/07/17 01:17:28;;;;;;;;;5.60;3.20;;;;;20.47;97.04;102041.00;4925708;29;44838;-94
2022/07/17 01:19:57;;;;;;;;;3.60;3.60;;;;;20.44;94.72;102038.53;4913798;29;44677;-94
2022/07/17 01:25:50;;;;;;;;;5.80;4.00;;;;;20.40;99.04;102034.38;4928699;29;44900;-94
2022/07/17 01:28:18;;;;;;;;;5.00;3.00;;;;;20.38;98.72;102042.63;4926988;29;44752;-94
2022/07/17 01:30:53;;;;;;;;;3.60;3.60;;;;;20.30;98.68;102045.13;4911562;29;44723;-94
2022/07/17 01:33:19;;;;;;;;;3.75;3.75;;;;;20.21;99.28;102038.72;4913858;29;44902;-93
2022/07/17 01:35:45;;;;;;;;;5.00;4.00;;;;;20.20;98.83;102049.63;4913969;29;45438;-93
2022/07/17 01:38:14;;;;;;;;;3.00;2.00;;;;;20.14;99.43;102044.78;4899664;29;44799;-93
2022/07/17 01:40:52;;;;;;;;;3.00;3.00;;;;;20.11;99.44;102047.72;4884674;29;44730;-93
2022/07/17 01:46:40;;;;;;;;;3.00;3.00;;;;;19.98;100.00;102034.47;4931357;29;44827;-92
2022/07/17 01:52:28;;;;;;;;;3.00;3.00;;;;;19.93;100.00;102028.59;4929208;29;44630;-93
2022/07/17 01:54:54;;;;;;;;;3.00;3.00;;;;;19.95;100.00;102027.47;4928070;29;44889;-93
2022/07/17 01:57:26;;;;;;;;;3.50;3.50;;;;;19.97;100.00;102032.75;4930603;29;44926;-93
2022/07/17 01:59:52;;;;;;;;;4.00;4.00;;;;;19.94;100.00;102022.22;4913552;29;44628;-93
2022/07/17 02:02:18;;;;;;;;;4.00;2.00;;;;;19.95;100.00;102023.91;4900160;28;44802;-92
2022/07/17 02:04:45;;;;;;;;;2.40;2.40;;;;;19.92;100.00;102026.88;4919189;28;44813;-92
2022/07/17 02:07:12;;;;;;;;;3.20;3.00;;;;;19.95;100.00;102034.72;4897659;29;45132;-95
2022/07/17 02:09:39;;;;;;;;;3.00;3.00;;;;;19.92;100.00;102029.56;4894564;29;44808;-94
2022/07/17 02:12:32;;;;;;;;;2.80;2.00;;;;;19.84;100.00;102019.47;4921670;28;44811;-94
2022/07/17 02:14:58;;;;;;;;;5.00;3.00;;;;;19.87;100.00;102029.13;4905675;29;44984;-93
2022/07/17 02:17:25;;;;;;;;;4.00;3.00;;;;;19.86;100.00;102030.09;4906522;29;45110;-93
2022/07/17 02:19:56;;;;;;;;;5.00;3.00;;;;;19.83;100.00;102028.53;4920418;29;44641;-94
2022/07/17 02:22:23;;;;;;;;;3.60;3.60;;;;;19.81;100.00;102029.66;4893030;29;44677;-94
2022/07/17 02:24:50;;;;;;;;;3.00;3.00;;;;;19.75;100.00;102020.25;4923180;29;44737;-94
2022/07/17 02:27:21;;;;;;;;;3.00;3.00;;;;;19.73;100.00;102014.13;4906435;29;45131;-93
2022/07/17 02:29:47;;;;;;;;;2.40;2.40;;;;;19.66;100.00;102010.25;4908051;29;44771;-93
2022/07/17 02:32:14;;;;;;;;;5.00;3.00;;;;;19.64;100.00;102015.78;4908253;29;44790;-93
2022/07/17 02:34:52;;;;;;;;;5.00;3.25;;;;;19.63;100.00;102024.84;4908471;29;45016;-93
2022/07/17 02:37:23;;;;;;;;;2.40;2.40;;;;;19.62;100.00;102031.19;4911774;29;46723;-93
2022/07/17 02:39:58;;;;;;;;;3.00;3.00;;;;;19.59;100.00;102015.28;4895257;29;44634;-93
2022/07/17 02:42:29;;;;;;;;;2.60;2.60;;;;;19.57;100.00;102011.84;4907157;29;44669;-93
2022/07/17 02:44:56;;;;;;;;;0.00;0.00;;;;;19.55;100.00;102016.50;4886487;29;44833;-93
2022/07/17 02:47:27;;;;;;;;;3.20;3.20;;;;;19.54;100.00;102013.97;4904828;29;45250;-93
2022/07/17 02:50:01;;;;;;;;;4.20;2.80;;;;;19.50;100.00;102025.00;4907098;29;44603;-94
2022/07/17 02:52:28;;;;;;;;;3.60;3.00;;;;;19.47;100.00;102010.91;4902810;29;44625;-94
2022/07/17 02:54:56;;;;;;;;;4.00;2.20;;;;;19.44;100.00;102012.03;4903748;29;45324;-94
2022/07/17 02:57:23;;;;;;;;;3.00;3.00;;;;;19.41;100.00;102014.97;4906242;29;45164;-94
2022/07/17 02:59:51;;;;;;;;;5.60;3.20;;;;;19.38;100.00;102023.31;4901496;29;44781;-94
2022/07/17 03:02:17;;;;;;;;;2.00;2.00;;;;;19.33;100.00;102014.75;4892456;28;44696;-92
2022/07/17 03:04:44;;;;;;;;;2.20;2.20;;;;;19.26;100.00;101998.25;4912685;29;44825;-90
2022/07/17 03:07:32;;;;;;;;;3.00;3.00;;;;;19.28;100.00;101998.13;4922178;29;45102;-93
2022/07/17 03:10:01;;;;;;;;;2.40;2.40;;;;;19.25;100.00;102001.94;4901756;29;44693;-94
2022/07/17 03:12:30;;;;;;;;;2.60;2.60;;;;;19.21;100.00;101995.09;4912288;28;44701;-94
2022/07/17 03:15:00;;;;;;;;;3.50;3.50;;;;;19.20;100.00;102006.00;4921235;28;44746;-93
2022/07/17 03:17:29;;;;;;;;;6.80;4.00;;;;;19.22;100.00;102020.19;4903997;28;45120;-93
2022/07/17 03:19:57;;;;;;;;;4.00;3.60;;;;;19.20;100.00;102014.94;4918567;28;44801;-93
2022/07/17 03:22:24;;;;;;;;;4.00;3.80;;;;;19.14;100.00;102001.97;4919402;28;44811;-92
2022/07/17 03:24:51;;;;;;;;;2.00;2.00;;;;;19.16;100.00;102007.25;4920582;28;45008;-92
2022/07/17 03:27:26;;;;;;;;;2.00;2.00;;;;;19.13;100.00;102016.41;4934705;28;45323;-95
2022/07/17 03:30:04;;;;;;;;;3.00;2.40;;;;;19.11;100.00;102014.84;4921411;28;44636;-94
2022/07/17 03:32:31;;;;;;;;;3.80;3.00;;;;;19.07;100.00;102016.94;4938832;28;44731;-92
2022/07/17 03:35:01;;;;;;;;;4.00;2.75;;;;;19.06;100.00;102012.53;4937575;28;44832;-94
2022/07/17 03:37:37;;;;;;;;;1.00;1.00;;;;;19.04;100.00;102017.19;4910243;28;45242;-93
2022/07/17 03:40:06;;;;;;;;;1.60;1.40;;;;;19.02;100.00;102012.91;4947038;28;44726;-94
2022/07/17 03:45:56;;;;;;;;;4.00;3.00;;;;;18.96;100.00;102016.97;4940525;28;44802;-94
2022/07/17 03:48:22;;;;;;;;;2.40;2.40;;;;;18.97;100.00;102021.38;4903635;28;45245;-94
2022/07/17 03:50:48;;;;;;;;;1.40;1.40;;;;;18.96;100.00;102027.75;4905297;28;44751;-92
2022/07/17 03:53:14;;;;;;;;;2.50;2.50;;;;;18.95;100.00;102023.31;4923272;28;44852;-93
2022/07/17 03:55:42;;;;;;;;;3.00;3.00;;;;;18.94;100.00;102024.31;4923979;28;44899;-93
2022/07/17 03:58:08;;;;;;;;;3.20;3.20;;;;;18.92;100.00;102020.88;4923815;28;47087;-93
2022/07/17 04:00:39;;;;;;;;;3.50;3.00;;;;;18.94;100.00;102021.59;4925772;28;44858;-93
2022/07/17 04:06:28;;;;;;;;;3.00;2.00;;;;;18.96;100.00;102025.06;4940713;28;44685;-94
2022/07/17 04:08:54;;;;;;;;;1.00;1.00;;;;;19.02;100.00;102027.22;4922278;28;45043;-93
2022/07/17 04:11:22;;;;;;;;;3.00;1.80;;;;;19.05;100.00;102026.09;4922014;28;44779;-93
2022/07/17 04:13:59;;;;;;;;;3.00;2.80;;;;;19.06;100.00;102023.31;4922311;28;44802;-93
2022/07/17 04:16:27;;;;;;;;;3.00;3.00;;;;;19.11;100.00;102022.94;4921204;28;45023;-94
2022/07/17 04:18:55;;;;;;;;;2.40;2.40;;;;;19.16;100.00;102013.47;4925434;28;45635;-93
2022/07/17 04:21:23;;;;;;;;;2.00;2.00;;;;;19.18;100.00;102014.19;4913352;28;44633;-94
2022/07/17 04:23:50;;;;;;;;;3.00;3.00;;;;;19.30;100.00;102024.97;4973903;23;44765;-93
2022/07/17 04:26:18;;;;;;;;;1.25;1.25;;;;;19.40;100.00;102026.75;4948799;28;44955;-94
2022/07/17 04:28:49;;;;;;;;;2.00;2.00;;;;;19.52;100.00;102043.72;4931481;28;45626;-94
2022/07/17 04:31:17;;;;;;;;;2.00;2.00;;;;;19.54;100.00;102043.63;4931760;28;44768;-94
2022/07/17 04:33:58;;;;;;;;;2.00;2.00;;;;;19.72;100.00;102063.63;4949266;28;44797;-92
2022/07/17 04:38:58;;;;;;;;;3.60;2.00;;;;;19.99;100.00;102063.13;4996962;23;45391;-93
2022/07/17 04:41:32;;;;;;;;;2.75;1.75;;;;;20.12;100.00;102066.50;4911768;28;44757;-93
2022/07/17 04:46:36;;;;;;;;;2.00;2.00;;;;;20.33;99.65;102069.16;4966079;23;46045;-95
2022/07/17 04:49:05;;;;;;;;;3.25;2.25;;;;;20.41;99.25;102066.66;4961652;28;45224;-95
2022/07/17 04:51:30;;;;;;;;;2.00;2.00;;;;;20.49;98.55;102071.41;4961741;28;44673;-94
2022/07/17 04:53:57;;;;;;;;;5.20;2.20;;;;;20.58;98.22;102067.06;4954542;28;44868;-95
2022/07/17 04:56:24;;;;;;;;;3.75;3.75;;;;;20.69;97.85;102075.91;4921633;28;44897;-94
2022/07/17 04:59:18;;;;;;;;;6.60;5.80;;;;;20.74;97.69;102070.09;4954065;28;45363;-94
2022/07/17 05:01:46;;;;;;;;;2.00;2.00;;;;;20.87;96.71;102073.41;4953743;28;44764;-95
2022/07/17 05:04:18;;;;;;;;;4.40;3.00;;;;;20.93;96.63;102070.16;4954608;28;44727;-95
2022/07/17 05:07:05;;;;;;;;;3.75;3.75;;;;;20.95;95.91;102076.31;4952064;28;44741;-95
2022/07/17 05:09:33;;;;;;;;;3.40;3.20;;;;;20.96;95.66;102077.16;4956124;28;45275;-95
2022/07/17 05:12:06;;;;;;;;;3.00;3.00;;;;;20.98;95.78;102073.34;4956701;28;44590;-94
2022/07/17 05:14:37;;;;;;;;;2.40;2.40;;;;;21.10;95.66;102071.38;4955730;28;44649;-94
2022/07/17 05:17:05;;;;;;;;;5.20;5.20;;;;;21.12;95.24;102090.13;4952179;28;44952;-95
2022/07/17 05:19:31;;;;;;;;;3.40;3.40;;;;;21.17;95.09;102093.28;4954179;28;45324;-96
2022/07/17 05:25:29;;;;;;;;;2.60;2.00;;;;;21.25;94.37;102096.16;4956299;28;44608;-94
2022/07/17 05:28:22;;;;;;;;;5.20;5.20;;;;;21.34;94.56;102089.94;4941416;28;44849;-93
2022/07/17 05:30:52;;;;;;;;;5.20;3.60;;;;;21.37;93.76;102099.59;4960703;28;45127;-94
2022/07/17 05:33:19;;;;;;;;;3.80;3.80;;;;;21.42;94.25;102090.09;4962005;28;44721;-94
2022/07/17 05:35:49;;;;;;;;;3.00;3.00;;;;;21.59;93.88;102096.66;4942788;28;44578;-94
2022/07/17 05:38:15;;;;;;;;;6.40;4.00;;;;;21.75;93.63;102094.22;4958758;28;44784;-94
2022/07/17 05:40:43;;;;;;;;;5.00;4.00;;;;;21.94;92.13;102100.63;4958009;28;45121;-94
2022/07/17 05:46:31;;;;;;;;;1.80;1.80;;;;;22.14;90.53;102093.38;4957099;28;44709;-93
2022/07/17 05:48:57;;;;;;;;;5.60;3.20;;;;;22.22;88.17;102099.78;5102135;23;45208;-88
2022/07/17 05:51:23;;;;;;;;;4.00;4.00;;;;;22.35;89.32;102098.63;4915412;29;46857;-88
2022/07/17 05:53:48;;;;;;;;;4.50;3.00;;;;;22.66;89.20;102107.34;4915699;29;45298;-89
2022/07/17 05:56:14;;;;;;;;;7.75;4.75;;;;;22.79;87.03;102116.84;4912191;29;44615;-88
2022/07/17 05:58:40;;;;;;;;;4.00;2.20;;;;;22.69;88.13;102107.91;4911033;29;45175;-88
2022/07/17 06:01:05;;;;;;;;;3.00;3.00;;;;;22.74;87.00;102110.19;4911304;29;46721;-89
2022/07/17 06:03:31;;;;;;;;;3.00;3.00;;;;;22.87;85.26;102098.97;4913052;29;45408;-89
2022/07/17 06:05:56;;;;;;;;;3.00;3.00;;;;;22.99;86.00;102097.81;4896443;29;44858;-89
2022/07/17 06:08:23;;;;;;;;;2.50;2.50;;;;;23.16;85.79;102098.84;4914279;29;44897;-90
2022/07/17 06:10:48;;;;;;;;;2.60;2.60;;;;;23.26;85.59;102102.41;4922431;29;46630;-88
2022/07/17 06:13:14;;;;;;;;;2.00;2.00;;;;;23.20;83.28;102101.13;4934419;28;44698;-89
2022/07/17 06:15:39;;;;;;;;;2.25;2.25;;;;;23.28;81.65;102106.66;4914996;28;44801;-90
2022/07/17 06:18:06;;;;;;;;;1.00;1.00;;;;;23.34;83.26;102106.03;4931603;28;45289;-88
2022/07/17 06:20:33;;;;;;;;;3.00;0.00;;;;;23.42;82.32;102101.72;4914899;28;45108;-89
2022/07/17 06:22:58;;;;;;;;;2.50;1.75;;;;;23.54;80.42;102095.03;4930938;28;44702;-90
2022/07/17 06:25:25;;;;;;;;;3.25;1.25;;;;;23.74;80.10;102106.63;4914231;28;44800;-89
2022/07/17 06:27:51;;;;;;;;;2.60;2.60;;;;;23.81;77.86;102102.28;4931206;28;44847;-89
2022/07/17 06:30:17;;;;;;;;;1.50;1.50;;;;;23.89;78.14;102112.38;4914113;28;45090;-89
2022/07/17 06:32:44;;;;;;;;;2.00;2.00;;;;;23.77;76.91;102111.75;4933644;28;44697;-89
2022/07/17 06:35:10;;;;;;;;;1.00;1.00;;;;;23.69;79.23;102106.25;4934663;28;44778;-91
2022/07/17 06:37:36;;;;;;;;;4.00;2.20;;;;;23.64;77.54;102103.97;4935760;28;45327;-90
2022/07/17 06:40:03;;;;;;;;;1.40;1.00;;;;;23.60;78.14;102099.88;4936041;28;45535;-90
2022/07/17 06:42:29;;;;;;;;;3.20;3.00;;;;;23.59;78.38;102096.31;4937523;28;44705;-89
2022/07/17 06:44:54;;;;;;;;;3.00;2.00;;;;;23.64;77.60;102098.56;4917034;28;44789;-90
2022/07/17 06:47:20;;;;;;;;;2.50;2.00;;;;;23.71;77.68;102118.66;4933766;28;44888;-89
2022/07/17 06:49:46;;;;;;;;;2.25;2.25;;;;;23.74;76.94;102101.19;4920991;28;45190;-90
2022/07/17 06:52:11;;;;;;;;;4.00;3.25;;;;;23.84;78.71;102100.13;4935597;28;44818;-90
2022/07/17 06:54:37;;;;;;;;;2.00;1.50;;;;;23.89;77.58;102098.81;4935592;28;44769;-89
2022/07/17 06:57:02;;;;;;;;;1.00;1.00;;;;;23.94;77.17;102093.75;4935498;28;44920;-88
2022/07/17 06:59:28;;;;;;;;;0.50;0.50;;;;;24.00;77.31;102096.69;4919670;28;46663;-90
2022/07/17 07:01:53;;;;;;;;;2.25;2.25;;;;;24.03;76.35;102101.81;4935389;28;44777;-90
2022/07/17 07:04:19;;;;;;;;;3.00;3.00;;;;;24.05;77.19;102096.22;4917882;28;44764;-90
2022/07/17 07:06:44;;;;;;;;;1.50;1.25;;;;;24.15;76.46;102101.56;4945756;28;44857;-90
2022/07/17 07:09:11;;;;;;;;;3.00;3.00;;;;;24.17;76.18;102103.09;4946202;28;45088;-89
2022/07/17 07:11:38;;;;;;;;;3.00;1.40;;;;;24.24;75.58;102093.31;4946292;28;44730;-88
2022/07/17 07:14:04;;;;;;;;;2.00;2.00;;;;;24.43;76.86;102103.16;4921115;28;44728;-89
2022/07/17 07:16:30;;;;;;;;;2.20;2.20;;;;;24.54;73.51;102099.28;4966476;28;44865;-89
2022/07/17 07:18:57;;;;;;;;;4.00;3.00;;;;;24.75;72.50;102107.03;4949174;28;45379;-89
2022/07/17 07:21:24;;;;;;;;;2.20;2.20;;;;;24.90;69.83;102105.44;4965331;28;44811;-90
2022/07/17 07:23:50;;;;;;;;;2.00;2.00;;;;;25.08;70.33;102108.91;4966564;28;44619;-89
2022/07/17 07:26:16;;;;;;;;;2.50;1.75;;;;;25.38;70.73;102112.06;4966298;28;44757;-90
2022/07/17 07:28:41;;;;;;;;;2.75;2.75;;;;;25.61;68.58;102107.69;4943812;28;45000;-89
2022/07/17 07:31:07;;;;;;;;;1.75;1.75;;;;;25.81;66.46;102107.41;4930213;28;44706;-88
2022/07/17 07:33:33;;;;;;;;;2.00;2.00;;;;;25.91;66.19;102099.91;4932311;28;44728;-88
2022/07/17 07:35:59;;;;;;;;;4.75;3.00;;;;;25.81;64.85;102107.41;4951737;28;44741;-88
2022/07/17 07:38:28;;;;;;;;;2.00;2.00;;;;;25.82;66.85;102107.25;4948530;28;46319;-88
2022/07/17 07:40:53;;;;;;;;;2.60;1.40;;;;;25.87;65.34;102106.75;4931113;28;44774;-88
2022/07/17 07:43:19;;;;;;;;;3.50;2.00;;;;;25.96;65.74;102102.13;4951967;28;44804;-89
2022/07/17 07:45:48;;;;;;;;;3.00;3.00;;;;;25.89;68.41;102101.97;4951975;28;44961;-88
2022/07/17 07:48:14;;;;;;;;;2.40;2.40;;;;;25.90;65.36;102095.50;4946297;28;45075;-90
2022/07/17 07:50:40;;;;;;;;;2.25;2.25;;;;;25.96;65.48;102093.97;4912269;28;45277;-88
2022/07/17 07:53:05;;;;;;;;;4.00;2.80;;;;;26.02;65.47;102098.75;4929525;28;44603;-89
2022/07/17 07:55:31;;;;;;;;;4.00;3.00;;;;;26.06;66.11;102095.50;4939804;28;44868;-90
2022/07/17 07:58:06;;;;;;;;;3.00;3.00;;;;;26.19;66.06;102099.56;4940272;28;46561;-89
2022/07/17 08:00:32;;;;;;;;;2.80;2.80;;;;;26.31;67.40;102098.22;4917463;28;44798;-90
2022/07/17 08:02:57;;;;;;;;;2.75;2.00;;;;;26.41;65.96;102101.59;4937199;28;44777;-87
2022/07/17 08:05:23;;;;;;;;;2.00;2.00;;;;;26.51;65.45;102104.16;4924851;28;44866;-88
2022/07/17 08:07:50;;;;;;;;;2.50;1.75;;;;;26.42;64.04;102105.16;4913841;28;45204;-89
2022/07/17 08:10:16;;;;;;;;;2.00;2.00;;;;;26.28;64.44;102104.84;4925827;28;44737;-89
2022/07/17 08:20:03;;;;;;;;;5.00;5.00;;;;;25.98;66.16;102100.97;4944548;28;45015;-92
2022/07/17 08:22:28;;;;;;;;;4.20;2.00;;;;;26.20;64.83;102088.50;4924213;28;44781;-89
2022/07/17 08:25:50;;;;;;;;;;;;;;;;;;;;;
2022/07/17 08:28:22;;;;;;;;;1.00;1.00;;;;;25.85;64.37;102095.16;4875044;29;44752;-89
2022/07/17 08:34:26;;;;;;;;;3.80;2.00;;;;;25.78;66.05;102096.88;4886739;29;44693;-88
2022/07/17 08:36:52;;;;;;;;;2.00;2.00;;;;;25.81;64.52;102096.50;4871460;29;45404;-89
2022/07/17 08:39:17;;;;;;;;;2.00;1.50;;;;;25.84;65.55;102093.47;4890807;29;44793;-90
2022/07/17 08:41:43;;;;;;;;;2.00;2.00;;;;;25.96;64.57;102102.13;4890693;29;45175;-89
2022/07/17 08:44:09;;;;;;;;;2.40;2.40;;;;;26.09;63.68;102095.16;4870290;29;44750;-89
2022/07/17 08:46:39;;;;;;;;;3.25;2.00;;;;;26.30;63.67;102096.47;4884070;29;44769;-88
2022/07/17 08:49:07;;;;;;;;;2.60;2.60;;;;;26.40;62.14;102091.72;4892545;29;44886;-89
2022/07/17 08:51:33;;;;;;;;;4.20;3.20;;;;;26.43;61.42;102101.44;4887925;29;45203;-89
2022/07/17 08:53:59;;;;;;;;;1.60;1.60;;;;;26.51;61.15;102095.97;4906475;29;44675;-89
2022/07/17 09:02:30;;;;;;;;;2.60;2.60;;;;;27.06;58.80;102090.47;4907475;28;46044;-90
2022/07/17 09:04:56;;;;;;;;;2.00;2.00;;;;;27.17;58.35;102091.97;4907490;29;44671;-89
2022/07/17 09:07:22;;;;;;;;;2.00;2.00;;;;;27.34;58.15;102087.28;4906160;29;44583;-90
2022/07/17 09:09:53;;;;;;;;;3.60;2.00;;;;;27.46;57.80;102096.75;4887382;29;45328;-89
2022/07/17 09:12:29;;;;;;;;;2.00;2.00;;;;;27.59;56.61;102097.00;4904334;29;45083;-90
2022/07/17 09:14:55;;;;;;;;;3.40;3.00;;;;;27.54;55.53;102093.13;4905554;29;44661;-90
2022/07/17 09:21:37;;;;;;;;;1.60;1.60;;;;;27.60;53.76;102095.13;4923754;29;44587;-94
2022/07/17 09:28:25;;;;;;;;;2.20;2.00;;;;;27.72;52.20;102090.97;4928554;29;44787;-93
2022/07/17 09:33:28;;;;;;;;;2.80;2.80;;;;;27.95;51.01;102096.44;5258907;23;44911;-88
2022/07/17 09:36:10;;;;;;;;;2.00;2.00;;;;;28.15;50.08;102100.34;4931032;28;45318;-91
2022/07/17 09:38:40;;;;;;;;;3.40;2.60;;;;;28.31;49.07;102093.00;4930430;28;44645;-90
2022/07/17 09:41:19;;;;;;;;;2.40;1.40;;;;;28.10;47.70;102102.78;4925844;28;44841;-90
2022/07/17 09:43:55;;;;;;;;;0.00;0.00;;;;;27.72;50.09;102096.44;4925525;28;44911;-90
2022/07/17 09:46:27;;;;;;;;;1.20;1.20;;;;;27.38;49.61;102100.41;4926945;28;45113;-90
2022/07/17 09:48:54;;;;;;;;;3.00;3.00;;;;;27.30;48.87;102105.88;4927093;28;44580;-90
2022/07/17 09:51:31;;;;;;;;;3.00;3.00;;;;;27.40;50.38;102098.31;4925732;28;45278;-89
2022/07/17 09:53:58;;;;;;;;;2.00;2.00;;;;;27.32;48.89;102101.13;4925525;28;44868;-90
2022/07/17 09:56:26;;;;;;;;;3.00;3.00;;;;;27.23;50.83;102095.88;4926995;28;45651;-90
2022/07/17 09:58:54;;;;;;;;;3.00;3.00;;;;;27.21;50.88;102100.66;4937856;28;45306;-89
2022/07/17 10:01:21;;;;;;;;;2.80;2.20;;;;;27.33;50.14;102094.63;5274381;23;44867;-89
2022/07/17 10:03:51;;;;;;;;;3.60;2.00;;;;;27.42;50.01;102093.53;4963762;28;44800;-89
2022/07/17 10:06:17;;;;;;;;;2.00;2.00;;;;;27.37;49.26;102093.25;4963841;28;44986;-89
2022/07/17 10:08:42;;;;;;;;;2.50;1.00;;;;;27.33;49.04;102101.97;4937230;28;44781;-88
2022/07/17 10:11:14;;;;;;;;;3.75;2.00;;;;;27.28;50.66;102096.19;4935966;28;44786;-88
2022/07/17 10:13:42;;;;;;;;;1.20;1.20;;;;;27.18;46.78;102090.97;4937564;28;44773;-87
2022/07/17 10:16:08;;;;;;;;;1.60;1.60;;;;;27.20;47.53;102088.91;4962624;28;45682;-89
2022/07/17 10:18:42;;;;;;;;;1.40;1.40;;;;;27.31;46.00;102099.41;4945525;28;44757;-88
2022/07/17 10:21:13;;;;;;;;;2.80;2.00;;;;;27.45;47.73;102099.66;4933041;28;44749;-89
2022/07/17 10:23:39;;;;;;;;;2.60;2.60;;;;;27.64;46.93;102096.47;4954060;28;44889;-89
2022/07/17 10:26:05;;;;;;;;;3.75;3.00;;;;;27.81;44.29;102103.53;4953646;28;45298;-88
2022/07/17 10:28:45;;;;;;;;;3.80;2.00;;;;;27.89;44.46;102100.72;4958110;28;44809;-87
2022/07/17 10:31:25;;;;;;;;;3.00;2.60;;;;;28.09;45.54;102103.81;4935326;28;44709;-87
2022/07/17 10:34:03;;;;;;;;;1.60;1.60;;;;;28.26;43.68;102109.13;4948688;28;44840;-88
2022/07/17 10:36:40;;;;;;;;;2.80;2.80;;;;;28.31;42.91;102110.25;4928636;28;46734;-89
2022/07/17 10:39:20;;;;;;;;;2.60;2.60;;;;;28.54;44.02;102118.41;4944355;28;44622;-89
2022/07/17 10:41:59;;;;;;;;;2.00;2.00;;;;;28.77;41.79;102107.41;4944210;28;44746;-88
2022/07/17 10:44:26;;;;;;;;;4.00;2.40;;;;;28.98;41.50;102112.13;4927950;28;44800;-88
2022/07/17 10:46:52;;;;;;;;;2.40;2.20;;;;;29.08;40.34;102109.09;4907144;28;45306;-89
2022/07/17 10:49:18;;;;;;;;;2.75;2.75;;;;;29.14;39.43;102108.31;4925009;28;45242;-89
2022/07/17 10:51:46;;;;;;;;;3.00;3.00;;;;;29.14;38.75;102106.41;4907894;28;44735;-89
2022/07/17 10:54:11;;;;;;;;;4.20;2.00;;;;;29.14;38.39;102100.09;4924298;28;44784;-89
2022/07/17 10:56:40;;;;;;;;;3.00;3.00;;;;;29.31;37.86;102107.06;4907402;28;46963;-89
2022/07/17 10:59:06;;;;;;;;;2.40;2.40;;;;;29.32;37.29;102111.47;4926285;28;44781;-89
2022/07/17 11:01:32;;;;;;;;;4.20;2.60;;;;;29.25;38.45;102104.22;4918168;28;44735;-88
2022/07/17 11:04:01;;;;;;;;;1.40;1.40;;;;;29.10;37.15;102105.09;4909080;29;44812;-89
2022/07/17 11:06:29;;;;;;;;;2.60;2.60;;;;;29.03;37.80;102106.91;4889908;29;46926;-89
2022/07/17 11:08:56;;;;;;;;;1.60;1.60;;;;;29.03;36.38;102101.44;4891080;29;44766;-88
2022/07/17 11:11:35;;;;;;;;;3.40;3.00;;;;;29.05;36.27;102093.03;4909347;29;44578;-88
2022/07/17 11:14:08;;;;;;;;;4.40;3.00;;;;;29.19;35.78;102095.75;4890350;29;44805;-87
2022/07/17 11:16:34;;;;;;;;;2.40;2.40;;;;;29.32;34.90;102100.53;4907626;29;45192;-89
2022/07/17 11:19:00;;;;;;;;;2.00;2.00;;;;;29.42;35.92;102090.09;4912025;29;44621;-88
2022/07/17 11:21:26;;;;;;;;;3.25;2.00;;;;;29.53;35.23;102094.22;4911921;29;44748;-87
2022/07/17 11:23:55;;;;;;;;;3.00;3.00;;;;;29.72;36.08;102097.38;4889587;29;44788;-89
2022/07/17 11:26:22;;;;;;;;;3.00;2.60;;;;;29.89;35.19;102096.09;4904890;29;45353;-89
2022/07/17 11:28:48;;;;;;;;;2.20;2.20;;;;;29.98;35.00;102089.41;4905846;29;44659;-89
2022/07/17 11:31:24;;;;;;;;;2.20;2.20;;;;;30.14;34.60;102093.78;4891744;29;44770;-88
2022/07/17 11:33:53;;;;;;;;;3.00;3.00;;;;;30.06;35.22;102086.50;4909261;29;44659;-89
2022/07/17 11:36:33;;;;;;;;;4.80;4.80;;;;;29.96;34.85;102081.38;4907940;29;45277;-89
2022/07/17 11:39:02;;;;;;;;;4.00;3.80;;;;;29.94;34.95;102085.38;4888262;29;44653;-89
2022/07/17 11:41:40;;;;;;;;;2.00;2.00;;;;;29.76;35.25;102083.09;4905178;29;44764;-88
2022/07/17 11:44:09;;;;;;;;;1.80;1.00;;;;;29.72;34.64;102089.16;4905074;28;44866;-88
2022/07/17 11:46:36;;;;;;;;;1.40;1.40;;;;;29.70;34.49;102064.72;4904127;29;45143;-88
2022/07/17 11:49:03;;;;;;;;;2.00;2.00;;;;;29.81;34.63;102066.06;4904913;29;44814;-88
2022/07/17 11:51:40;;;;;;;;;2.00;2.00;;;;;29.78;33.72;102064.56;4906447;29;44758;-86
2022/07/17 11:54:11;;;;;;;;;1.60;1.60;;;;;29.70;33.69;102065.56;4889832;29;44858;-89
2022/07/17 11:56:38;;;;;;;;;1.00;1.00;;;;;29.82;34.59;102067.75;4906005;29;45097;-90
2022/07/17 11:59:04;;;;;;;;;3.60;3.40;;;;;29.81;34.37;102063.31;4890954;29;44714;-89
2022/07/17 12:01:44;;;;;;;;;2.00;2.00;;;;;29.89;33.95;102061.31;4899445;29;44873;-89
2022/07/17 12:04:34;;;;;;;;;2.80;2.20;;;;;30.01;33.98;102053.38;4920157;28;44931;-93
2022/07/17 12:07:04;;;;;;;;;2.00;2.00;;;;;30.30;33.64;102051.50;5307294;23;45782;-91
2022/07/17 12:09:33;;;;;;;;;2.75;2.75;;;;;30.44;33.22;102051.38;4932519;28;44740;-89
2022/07/17 12:11:59;;;;;;;;;2.60;2.40;;;;;30.66;33.81;102040.31;4933413;28;44653;-89
2022/07/17 12:14:25;;;;;;;;;4.00;3.00;;;;;30.79;33.11;102032.16;4930291;28;44891;-89
2022/07/17 12:16:51;;;;;;;;;2.50;2.50;;;;;30.88;32.91;102033.66;4930918;28;45021;-88
2022/07/17 12:19:19;;;;;;;;;1.25;1.25;;;;;31.15;33.59;102028.28;4932013;28;44850;-89
2022/07/17 12:21:55;;;;;;;;;3.60;3.00;;;;;31.28;32.77;102027.47;4928736;28;44850;-90
2022/07/17 12:24:29;;;;;;;;;0.00;0.00;;;;;31.36;32.89;102022.63;4932715;28;44933;-90
2022/07/17 12:26:58;;;;;;;;;3.20;3.20;;;;;31.36;32.73;102013.53;4933238;28;45212;-90
2022/07/17 12:29:24;;;;;;;;;2.40;2.40;;;;;31.47;32.93;102015.66;4931807;28;44603;-90
2022/07/17 12:32:07;;;;;;;;;2.00;2.00;;;;;31.63;32.44;102012.53;4934731;28;44634;-88